Time;durP1;ratioP1;P1;durP2;ratioP2;P2;SDS_P1;SDS_P2;PMS_P1;PMS_P2;Temp;Humidity;BMP_temperature;BMP_pressure;BME280_temperature;BME280_humidity;BME280_pressure;Samples;Min_cycle;Max_cycle;Signal;HPM_P1;HPM_P2
2021/12/01 00:00:14;;;;;;;42.93;2.17;;;;;;;4.44;100.00;97259.53;5024558;28;20664;-67
2021/12/01 00:02:41;;;;;;;61.70;3.13;;;;;;;4.32;100.00;97251.69;5025763;28;20612;-67
2021/12/01 00:05:09;;;;;;;43.10;2.53;;;;;;;4.36;100.00;97249.38;5022741;28;20648;-67
2021/12/01 00:07:36;;;;;;;54.67;2.87;;;;;;;4.33;100.00;97253.28;5022287;28;20644;-67
2021/12/01 00:10:06;;;;;;;33.07;2.10;;;;;;;4.40;100.00;97253.13;5023774;28;20632;-67
2021/12/01 00:12:33;;;;;;;18.17;1.30;;;;;;;4.42;100.00;97252.91;5024823;28;20612;-67
2021/12/01 00:14:59;;;;;;;18.60;1.20;;;;;;;4.32;100.00;97248.25;5024990;28;20605;-67
2021/12/01 00:17:26;;;;;;;22.00;1.40;;;;;;;4.41;100.00;97252.09;5024329;28;20666;-67
2021/12/01 00:19:53;;;;;;;36.10;1.80;;;;;;;4.35;100.00;97245.94;5025184;28;20649;-67
2021/12/01 00:22:19;;;;;;;25.23;1.43;;;;;;;4.34;100.00;97246.16;5026246;28;20594;-67
2021/12/01 00:24:46;;;;;;;25.27;1.60;;;;;;;4.36;100.00;97246.75;5026046;28;20606;-67
2021/12/01 00:27:14;;;;;;;22.60;1.37;;;;;;;4.39;100.00;97242.81;5028594;28;20621;-67
2021/12/01 00:29:41;;;;;;;30.37;2.03;;;;;;;4.44;100.00;97243.69;5029618;28;20598;-67
2021/12/01 00:32:09;;;;;;;31.27;1.90;;;;;;;4.38;100.00;97243.84;5027789;28;20621;-67
2021/12/01 00:34:36;;;;;;;16.40;1.00;;;;;;;4.41;100.00;97238.06;5029248;28;20616;-67
2021/12/01 00:37:03;;;;;;;33.13;1.77;;;;;;;4.44;100.00;97243.69;5027905;28;21148;-67
2021/12/01 00:39:29;;;;;;;6.67;0.80;;;;;;;4.50;100.00;97242.72;5025794;28;20628;-67
2021/12/01 00:41:57;;;;;;;24.13;1.43;;;;;;;4.46;100.00;97243.44;5025957;28;20618;-67
2021/12/01 00:44:24;;;;;;;6.47;0.70;;;;;;;4.32;100.00;97237.66;5029096;28;20616;-67
2021/12/01 00:46:56;;;;;;;17.47;1.07;;;;;;;4.50;100.00;97234.78;5028902;28;20679;-67
2021/12/01 00:49:22;;;;;;;20.13;1.33;;;;;;;4.44;100.00;97222.53;5025671;28;20830;-67
2021/12/01 00:51:49;;;;;;;15.63;1.10;;;;;;;4.42;100.00;97234.41;5025477;28;20597;-67
2021/12/01 00:54:17;;;;;;;11.27;0.87;;;;;;;4.57;100.00;97232.00;5028302;28;20593;-67
2021/12/01 00:56:44;;;;;;;25.83;1.47;;;;;;;4.38;100.00;97222.69;5028879;28;20613;-67
2021/12/01 00:59:10;;;;;;;27.77;1.67;;;;;;;4.40;100.00;97231.97;5027669;28;20605;-67
2021/12/01 01:01:38;;;;;;;17.57;1.17;;;;;;;4.52;100.00;97226.63;5025297;28;20601;-67
2021/12/01 01:04:05;;;;;;;23.63;1.43;;;;;;;4.56;100.00;97230.38;5026955;28;20645;-68
2021/12/01 01:06:32;;;;;;;29.73;1.60;;;;;;;4.53;100.00;97225.56;5028720;28;20636;-68
2021/12/01 01:09:00;;;;;;;13.23;1.17;;;;;;;4.52;100.00;97219.47;5027954;28;20604;-67
2021/12/01 01:16:58;;;;;;;15.43;1.03;;;;;;;4.42;100.00;97221.19;5028176;28;20600;-68
2021/12/01 01:19:26;;;;;;;14.03;1.10;;;;;;;4.39;100.00;97216.38;5025050;28;20678;-67
2021/12/01 01:21:55;;;;;;;20.13;1.37;;;;;;;4.39;100.00;97214.53;5024960;28;20609;-67
2021/12/01 01:24:21;;;;;;;22.47;1.43;;;;;;;4.40;100.00;97210.03;5025121;28;20615;-67
2021/12/01 01:26:49;;;;;;;17.77;1.63;;;;;;;4.61;100.00;97207.44;5024046;28;20618;-67
2021/12/01 01:29:20;;;;;;;12.03;1.10;;;;;;;4.53;100.00;97212.34;5030622;28;20637;-67
2021/12/01 01:31:47;;;;;;;29.83;2.13;;;;;;;4.47;100.00;97213.31;5024881;28;20620;-67
2021/12/01 01:34:15;;;;;;;13.23;1.30;;;;;;;4.49;100.00;97211.25;5027667;28;20608;-67
2021/12/01 01:36:41;;;;;;;39.07;2.60;;;;;;;4.53;100.00;97210.50;5028249;28;20597;-68
2021/12/01 01:39:08;;;;;;;8.40;1.00;;;;;;;4.60;100.00;97210.34;5026021;28;20619;-68
2021/12/01 01:41:35;;;;;;;6.20;1.10;;;;;;;4.65;100.00;97208.59;5024616;28;20641;-68
2021/12/01 01:44:02;;;;;;;22.73;2.03;;;;;;;4.72;100.00;97197.84;5025730;28;20597;-68
2021/12/01 01:46:32;;;;;;;15.63;1.73;;;;;;;4.70;100.00;97194.66;5027945;28;20609;-68
2021/12/01 01:49:06;;;;;;;4.50;1.00;;;;;;;4.60;100.00;97199.78;5027120;28;20617;-68
2021/12/01 01:51:34;;;;;;;15.33;1.57;;;;;;;4.62;100.00;97197.69;5023534;28;20613;-68
2021/12/01 01:54:01;;;;;;;26.40;2.40;;;;;;;4.66;100.00;97193.53;5025550;28;20586;-68
2021/12/01 01:56:29;;;;;;;14.00;1.40;;;;;;;4.58;100.00;97191.28;5027924;28;20670;-67
2021/12/01 01:58:56;;;;;;;32.80;2.43;;;;;;;4.61;100.00;97183.66;5026472;28;20623;-67
2021/12/01 02:01:39;;;;;;;12.87;1.63;;;;;;;4.69;100.00;97182.47;5024573;28;20593;-67
2021/12/01 02:04:06;;;;;;;47.90;3.53;;;;;;;4.63;100.00;97175.50;5025735;28;20622;-67
2021/12/01 02:06:34;;;;;;;20.13;2.03;;;;;;;4.64;100.00;97169.16;5027644;28;20596;-67
2021/12/01 02:09:01;;;;;;;38.57;3.00;;;;;;;4.68;100.00;97170.25;5026567;28;20663;-67
2021/12/01 02:11:29;;;;;;;29.23;2.30;;;;;;;4.68;100.00;97159.69;5024124;28;20606;-67
2021/12/01 02:13:56;;;;;;;51.47;3.37;;;;;;;4.60;100.00;97162.75;5024352;28;20701;-67
2021/12/01 02:16:23;;;;;;;17.47;1.60;;;;;;;4.54;100.00;97155.78;5027601;28;20628;-67
2021/12/01 02:18:50;;;;;;;16.70;1.40;;;;;;;4.67;100.00;97155.47;5027345;28;20667;-67
2021/12/01 02:21:24;;;;;;;13.27;1.40;;;;;;;4.57;100.00;97142.91;5024257;28;20582;-67
2021/12/01 02:23:51;;;;;;;19.23;2.10;;;;;;;4.53;100.00;97149.69;5023841;28;20660;-67
2021/12/01 02:26:20;;;;;;;28.97;2.30;;;;;;;4.64;100.00;97137.44;5027263;28;21212;-67
2021/12/01 02:28:50;;;;;;;15.77;1.67;;;;;;;4.63;100.00;97141.91;5027214;28;20632;-67
2021/12/01 02:31:17;;;;;;;12.40;1.63;;;;;;;4.60;100.00;97136.31;5024021;28;20614;-67
2021/12/01 02:33:43;;;;;;;56.03;3.90;;;;;;;4.67;100.00;97139.59;5023775;28;20602;-67
2021/12/01 02:36:11;;;;;;;14.40;1.90;;;;;;;4.63;100.00;97127.91;5026098;28;20680;-68
2021/12/01 02:38:42;;;;;;;9.53;1.70;;;;;;;4.53;100.00;97131.19;5027086;28;20609;-67
2021/12/01 02:41:09;;;;;;;21.97;2.10;;;;;;;4.64;100.00;97124.22;5024786;28;20617;-67
2021/12/01 02:43:35;;;;;;;16.13;1.67;;;;;;;4.63;100.00;97117.31;5023664;28;20710;-67
2021/12/01 02:46:03;;;;;;;33.00;2.60;;;;;;;4.54;100.00;97116.13;5024621;28;20598;-67
2021/12/01 02:48:30;;;;;;;20.53;1.93;;;;;;;4.62;100.00;97123.63;5027307;28;20629;-68
2021/12/01 02:50:57;;;;;;;26.33;2.30;;;;;;;4.63;100.00;97120.75;5026597;28;20612;-67
2021/12/01 02:53:25;;;;;;;29.60;2.60;;;;;;;4.64;100.00;97116.28;5023602;28;20609;-67
2021/12/01 02:55:56;;;;;;;43.97;3.40;;;;;;;4.67;100.00;97111.28;5023357;28;20622;-67
2021/12/01 02:58:24;;;;;;;16.80;2.03;;;;;;;4.74;100.00;97108.47;5027290;28;20608;-67
2021/12/01 03:00:52;;;;;;;18.03;2.30;;;;;;;4.77;100.00;97106.13;5026903;28;21164;-67
2021/12/01 03:03:20;;;;;;;16.30;2.07;;;;;;;4.74;100.00;97082.81;5023544;28;20602;-67
2021/12/01 03:05:48;;;;;;;19.27;1.80;;;;;;;4.73;100.00;97093.66;5023294;28;20629;-67
2021/12/01 03:08:15;;;;;;;20.63;2.13;;;;;;;4.70;100.00;97087.03;5026069;28;20589;-67
2021/12/01 03:10:44;;;;;;;19.37;2.20;;;;;;;4.67;100.00;97084.06;5026653;28;20612;-67
2021/12/01 03:13:12;;;;;;;28.20;2.90;;;;;;;4.72;100.00;97086.75;5024354;28;20613;-67
2021/12/01 03:15:38;;;;;;;51.27;3.83;;;;;;;4.73;100.00;97083.06;5023157;28;20610;-67
2021/12/01 03:18:05;;;;;;;17.27;2.30;;;;;;;4.74;100.00;97074.06;5024697;28;20618;-67
2021/12/01 03:20:32;;;;;;;26.03;2.50;;;;;;;4.77;100.00;97069.09;5026499;28;20608;-67
2021/12/01 03:22:58;;;;;;;11.63;1.63;;;;;;;4.73;100.00;97075.94;5025779;28;20946;-67
2021/12/01 03:25:27;;;;;;;18.97;1.97;;;;;;;4.75;100.00;97055.34;5023150;28;21231;-67
2021/12/01 03:27:54;;;;;;;11.27;1.43;;;;;;;4.75;100.00;97050.03;5024238;28;20614;-67
2021/12/01 03:30:22;;;;;;;26.63;2.63;;;;;;;4.80;100.00;97059.88;5023104;28;20598;-67
2021/12/01 03:32:50;;;;;;;23.50;2.30;;;;;;;4.83;100.00;97067.31;5022987;28;20640;-67
2021/12/01 03:35:17;;;;;;;22.10;2.83;;;;;;;4.78;100.00;97057.47;5026227;28;20584;-67
2021/12/01 03:37:46;;;;;;;33.73;2.53;;;;;;;4.69;100.00;97051.03;5026386;28;20612;-67
2021/12/01 03:40:15;;;;;;;12.33;1.30;;;;;;;4.81;100.00;97045.59;5022922;28;20617;-67
2021/12/01 03:42:44;;;;;;;19.20;1.73;;;;;;;4.82;100.00;97055.16;5022900;28;20620;-67
2021/12/01 03:45:14;;;;;;;25.37;1.80;;;;;;;4.76;100.00;97051.66;5025219;28;20614;-67
2021/12/01 03:47:42;;;;;;;43.50;3.00;;;;;;;4.81;100.00;97032.38;5026113;28;20628;-67
2021/12/01 03:50:10;;;;;;;34.80;2.50;;;;;;;4.76;100.00;97025.19;5024214;28;20632;-67
2021/12/01 03:52:37;;;;;;;39.27;2.60;;;;;;;4.86;100.00;97024.50;5025196;28;20601;-67
2021/12/01 03:55:05;;;;;;;8.70;1.27;;;;;;;4.84;100.00;97026.59;5028077;28;20625;-67
2021/12/01 03:57:32;;;;;;;6.93;1.07;;;;;;;4.81;100.00;97027.91;5030187;28;20613;-67
2021/12/01 03:59:58;;;;;;;13.83;1.73;;;;;;;4.92;100.00;97023.50;5029949;28;20622;-67
2021/12/01 04:02:25;;;;;;;21.37;1.80;;;;;;;4.84;100.00;97016.00;5030104;28;20624;-67
2021/12/01 04:04:53;;;;;;;15.20;1.60;;;;;;;4.81;100.00;97013.88;5029902;28;21382;-67
2021/12/01 04:07:20;;;;;;;9.20;1.43;;;;;;;4.83;100.00;97009.91;5018577;28;20622;-67
2021/12/01 04:09:47;;;;;;;46.00;3.17;;;;;;;5.00;100.00;96993.16;5018401;28;20598;-67
2021/12/01 04:12:13;;;;;;;27.60;2.20;;;;;;;4.83;100.00;96999.34;5018330;28;20676;-67
2021/12/01 04:14:40;;;;;;;34.87;3.00;;;;;;;4.90;100.00;96991.22;5018383;28;21471;-67
2021/12/01 04:17:06;;;;;;;16.83;1.50;;;;;;;4.87;100.00;96981.13;5018357;28;21149;-67
2021/12/01 04:19:33;;;;;;;35.43;3.03;;;;;;;4.74;100.00;96963.00;5018235;28;20610;-67
2021/12/01 04:22:02;;;;;;;13.63;1.50;;;;;;;4.92;100.00;96973.22;5018084;28;20613;-67
2021/12/01 04:24:29;;;;;;;12.90;1.53;;;;;;;4.92;100.00;96969.81;5018280;28;20602;-67
2021/12/01 04:26:57;;;;;;;9.73;1.30;;;;;;;4.93;100.00;96960.81;5017993;28;20606;-67
2021/12/01 04:29:24;;;;;;;25.17;1.83;;;;;;;4.88;100.00;96965.03;5027470;28;20993;-67
2021/12/01 04:31:50;;;;;;;15.70;1.43;;;;;;;5.02;100.00;96965.41;5026159;28;20629;-67
2021/12/01 04:34:19;;;;;;;15.33;1.33;;;;;;;4.89;100.00;96963.94;5029254;28;20671;-67
2021/12/01 04:36:48;;;;;;;22.27;1.97;;;;;;;5.03;100.00;96960.91;5029493;28;21170;-67
2021/12/01 04:39:19;;;;;;;22.40;1.70;;;;;;;4.87;100.00;96963.41;5026580;28;20663;-67
2021/12/01 04:41:52;;;;;;;39.27;2.67;;;;;;;4.92;100.00;96965.28;5025829;28;20601;-67
2021/12/01 04:44:20;;;;;;;13.13;1.30;;;;;;;4.84;100.00;96958.63;5029374;28;20624;-67
2021/12/01 04:46:48;;;;;;;25.33;1.70;;;;;;;4.95;100.00;96954.25;5029159;28;20592;-67
2021/12/01 04:49:17;;;;;;;18.70;1.63;;;;;;;4.91;100.00;96958.44;5026537;28;20622;-67
2021/12/01 04:51:46;;;;;;;58.90;3.60;;;;;;;4.99;100.00;96955.31;5025821;28;20672;-67
2021/12/01 04:54:14;;;;;;;65.30;4.17;;;;;;;4.94;100.00;96949.19;5028171;28;20620;-67
2021/12/01 04:56:43;;;;;;;24.67;1.83;;;;;;;4.87;100.00;96947.53;5029011;28;20605;-67
2021/12/01 04:59:11;;;;;;;27.80;2.00;;;;;;;4.93;100.00;96937.81;5028108;28;20628;-67
2021/12/01 05:01:39;;;;;;;18.80;1.40;;;;;;;4.98;100.00;96935.22;5025577;28;20614;-67
2021/12/01 05:04:05;;;;;;;16.00;1.63;;;;;;;5.10;100.00;96938.50;5026721;28;20629;-67
2021/12/01 05:06:32;;;;;;;17.00;1.33;;;;;;;5.00;100.00;96941.06;5028893;28;20607;-67
2021/12/01 05:08:59;;;;;;;27.97;1.87;;;;;;;5.13;100.00;96950.44;5027968;28;20611;-67
2021/12/01 05:11:25;;;;;;;34.87;2.43;;;;;;;5.08;100.00;96948.53;5025476;28;20629;-67
2021/12/01 05:13:54;;;;;;;18.87;1.83;;;;;;;5.09;100.00;96947.47;5024309;28;20602;-67
2021/12/01 05:16:21;;;;;;;34.37;2.43;;;;;;;5.10;100.00;96951.75;5025462;28;20605;-67
2021/12/01 05:18:47;;;;;;;20.73;1.97;;;;;;;5.09;100.00;96942.19;5025182;28;20605;-67
2021/12/01 05:21:14;;;;;;;17.33;1.60;;;;;;;5.16;100.00;96944.63;5026960;28;20674;-67
2021/12/01 05:23:41;;;;;;;36.33;2.57;;;;;;;5.15;100.00;96951.78;5028428;28;20600;-67
2021/12/01 05:26:09;;;;;;;22.03;1.73;;;;;;;5.14;100.00;96947.50;5026730;28;20644;-67
2021/12/01 05:28:36;;;;;;;39.20;2.57;;;;;;;5.02;100.00;96946.88;5029600;28;20624;-67
2021/12/01 05:31:04;;;;;;;17.53;1.43;;;;;;;5.00;100.00;96943.69;5027074;28;20612;-67
2021/12/01 05:33:31;;;;;;;8.90;1.20;;;;;;;5.16;100.00;96944.63;5024876;28;20624;-67
2021/12/01 05:35:58;;;;;;;30.37;2.50;;;;;;;4.99;100.00;96944.75;5025428;28;20594;-67
2021/12/01 05:38:24;;;;;;;17.93;1.37;;;;;;;5.08;100.00;96948.53;5028299;28;20613;-67
2021/12/01 05:40:51;;;;;;;23.03;1.87;;;;;;;5.10;100.00;96943.00;5028206;28;20608;-67
2021/12/01 05:43:19;;;;;;;27.37;2.40;;;;;;;5.09;100.00;96939.53;5024938;28;20601;-67
2021/12/01 05:45:47;;;;;;;32.80;2.40;;;;;;;5.02;100.00;96932.84;5024760;28;20725;-67
2021/12/01 05:48:16;;;;;;;18.00;2.10;;;;;;;5.09;100.00;96936.91;5027442;28;20614;-67
2021/12/01 05:50:43;;;;;;;24.13;1.87;;;;;;;5.10;100.00;96930.56;5027928;28;20604;-67
2021/12/01 05:53:10;;;;;;;10.77;1.27;;;;;;;5.12;100.00;96927.66;5025805;28;20624;-67
2021/12/01 05:55:37;;;;;;;57.20;3.53;;;;;;;5.24;100.00;96917.69;5024413;28;20637;-67
2021/12/01 05:58:04;;;;;;;31.87;2.20;;;;;;;5.19;100.00;96915.81;5026110;28;20628;-67
2021/12/01 06:00:31;;;;;;;23.27;2.37;;;;;;;5.22;100.00;96917.97;5027860;28;20613;-67
2021/12/01 06:02:58;;;;;;;16.90;1.70;;;;;;;5.10;100.00;96919.97;5027299;28;20613;-67
2021/12/01 06:05:27;;;;;;;14.20;1.80;;;;;;;5.26;100.00;96924.31;5024372;28;20618;-67
2021/12/01 06:07:54;;;;;;;26.97;2.03;;;;;;;5.29;100.00;96917.75;5024189;28;20865;-67
2021/12/01 06:10:22;;;;;;;32.40;2.40;;;;;;;5.21;100.00;96915.56;5024226;28;20601;-67
2021/12/01 06:12:49;;;;;;;41.10;3.00;;;;;;;5.15;100.00;96919.22;5024116;28;20703;-67
2021/12/01 06:15:17;;;;;;;6.53;0.90;;;;;;;5.10;100.00;96913.88;5026510;28;20600;-67
2021/12/01 06:17:45;;;;;;;48.60;3.30;;;;;;;5.12;100.00;96898.53;5027451;28;21031;-67
2021/12/01 06:20:12;;;;;;;25.30;2.00;;;;;;;5.13;100.00;96893.00;5025193;28;20605;-67
2021/12/01 06:22:42;;;;;;;62.00;3.83;;;;;;;5.13;100.00;96881.63;5023876;28;20680;-67
2021/12/01 06:25:09;;;;;;;15.73;1.97;;;;;;;5.14;100.00;96872.63;5025683;28;21019;-67
2021/12/01 06:27:36;;;;;;;17.83;1.70;;;;;;;5.27;100.00;96869.53;5027205;28;21161;-67
2021/12/01 06:30:04;;;;;;;21.00;2.13;;;;;;;5.20;100.00;96868.97;5025715;28;20605;-67
2021/12/01 06:32:31;;;;;;;24.00;1.97;;;;;;;5.27;100.00;96866.91;5027318;28;20617;-67
2021/12/01 06:34:57;;;;;;;6.63;1.30;;;;;;;5.23;100.00;96858.66;5026836;28;20616;-67
2021/12/01 06:37:24;;;;;;;10.03;1.27;;;;;;;5.17;100.00;96849.09;5022867;28;20688;-67
2021/12/01 06:39:52;;;;;;;35.80;2.40;;;;;;;5.27;100.00;96838.59;5023723;28;20613;-67
2021/12/01 06:42:19;;;;;;;38.50;2.87;;;;;;;5.23;100.00;96842.78;5026776;28;20680;-67
2021/12/01 06:44:46;;;;;;;71.10;4.10;;;;;;;5.15;100.00;96837.97;5026599;28;20608;-67
2021/12/01 06:47:12;;;;;;;25.27;2.00;;;;;;;5.24;100.00;96833.00;5023423;28;20636;-67
2021/12/01 06:49:39;;;;;;;36.57;2.30;;;;;;;5.36;100.00;96834.41;5023408;28;20601;-67
2021/12/01 06:52:06;;;;;;;19.50;1.53;;;;;;;5.20;100.00;96835.34;5024812;28;20675;-67
2021/12/01 06:54:33;;;;;;;17.00;1.40;;;;;;;5.20;100.00;96829.28;5026380;28;20627;-67
2021/12/01 06:57:01;;;;;;;20.30;1.67;;;;;;;5.33;100.00;96834.13;5025834;28;20617;-67
2021/12/01 06:59:27;;;;;;;11.27;1.23;;;;;;;5.24;100.00;96836.44;5024556;28;20602;-67
2021/12/01 07:01:54;;;;;;;15.00;1.70;;;;;;;5.19;100.00;96836.41;5022358;28;20629;-67
2021/12/01 07:04:20;;;;;;;28.33;2.20;;;;;;;5.22;100.00;96830.63;5023029;28;20717;-67
2021/12/01 07:06:47;;;;;;;20.83;1.43;;;;;;;5.21;100.00;96831.66;5023017;28;21157;-67
2021/12/01 07:09:18;;;;;;;19.90;1.87;;;;;;;5.36;100.00;96820.38;5025817;28;20598;-67
2021/12/01 07:11:45;;;;;;;45.80;3.13;;;;;;;5.22;100.00;96817.38;5026348;28;20601;-67
2021/12/01 07:14:13;;;;;;;39.33;2.80;;;;;;;5.31;100.00;96810.56;5024049;28;20597;-67
2021/12/01 07:16:40;;;;;;;22.20;1.73;;;;;;;5.24;100.00;96815.28;5023018;28;20614;-67
2021/12/01 07:19:07;;;;;;;8.83;1.03;;;;;;;5.33;100.00;96821.69;5024604;28;20606;-67
2021/12/01 07:21:35;;;;;;;48.30;3.17;;;;;;;5.27;100.00;96803.38;5026209;28;20617;-67
2021/12/01 07:24:03;;;;;;;36.67;2.33;;;;;;;5.22;100.00;96812.09;5025193;28;20612;-67
2021/12/01 07:26:30;;;;;;;24.80;1.83;;;;;;;5.31;100.00;96793.88;5022116;28;20609;-67
2021/12/01 07:28:57;;;;;;;7.17;1.00;;;;;;;5.35;100.00;96801.03;5029423;28;20589;-67
2021/12/01 07:31:25;;;;;;;10.00;1.23;;;;;;;5.37;100.00;96790.19;5022846;28;21377;-67
2021/12/01 07:33:52;;;;;;;27.57;2.10;;;;;;;5.41;100.00;96786.00;5022629;28;20629;-67
2021/12/01 07:36:19;;;;;;;32.27;3.93;;;;;;;5.45;100.00;96777.25;5026050;28;20601;-67
2021/12/01 07:38:46;;;;;;;47.80;3.20;;;;;;;5.53;100.00;96770.69;5026114;28;20666;-67
2021/12/01 07:41:13;;;;;;;36.97;2.10;;;;;;;5.35;100.00;96774.56;5023609;28;20596;-67
2021/12/01 07:43:39;;;;;;;74.67;4.13;;;;;;;5.45;100.00;96769.31;5022535;28;20606;-67
2021/12/01 07:46:06;;;;;;;10.13;1.10;;;;;;;5.33;100.00;96766.09;5024267;28;20637;-67
2021/12/01 07:48:36;;;;;;;11.50;1.20;;;;;;;5.49;100.00;96763.50;5026097;28;20677;-67
2021/12/01 07:51:03;;;;;;;25.43;2.33;;;;;;;5.57;100.00;96765.69;5024897;28;20624;-67
2021/12/01 07:53:30;;;;;;;12.70;1.47;;;;;;;5.50;100.00;96768.56;5022647;28;20644;-67
2021/12/01 07:55:56;;;;;;;10.17;1.10;;;;;;;5.69;100.00;96763.59;5022799;28;20610;-67
2021/12/01 07:58:23;;;;;;;14.43;1.00;;;;;;;5.47;100.00;96766.44;5027390;28;20605;-67
2021/12/01 08:00:49;;;;;;;23.00;1.90;;;;;;;5.51;100.00;96750.84;5025949;28;20605;-67
2021/12/01 08:03:16;;;;;;;12.17;1.37;;;;;;;5.56;100.00;96753.50;5022820;28;20621;-67
2021/12/01 08:05:44;;;;;;;39.30;2.60;;;;;;;5.61;100.00;96758.78;5022406;28;20620;-67
2021/12/01 08:08:11;;;;;;;22.67;1.67;;;;;;;5.64;100.00;96750.31;5024634;28;21366;-67
2021/12/01 08:10:38;;;;;;;23.67;1.87;;;;;;;5.68;100.00;96751.41;5025743;28;20608;-67
2021/12/01 08:13:05;;;;;;;12.50;1.27;;;;;;;5.53;100.00;96752.16;5024573;28;20621;-67
2021/12/01 08:15:32;;;;;;;11.93;1.37;;;;;;;5.54;100.00;96758.25;5022549;28;20620;-67
2021/12/01 08:17:59;;;;;;;33.73;2.33;;;;;;;5.57;100.00;96752.44;5023072;28;20610;-67
2021/12/01 08:20:26;;;;;;;31.97;2.40;;;;;;;5.62;100.00;96752.44;5025829;28;20617;-67
2021/12/01 08:22:54;;;;;;;26.27;1.97;;;;;;;5.63;100.00;96746.09;5025693;28;20616;-67
2021/12/01 08:25:21;;;;;;;7.93;1.20;;;;;;;5.60;100.00;96738.69;5022545;28;20602;-67
2021/12/01 08:27:48;;;;;;;56.97;3.60;;;;;;;5.59;100.00;96737.09;5022120;28;20672;-67
2021/12/01 08:30:16;;;;;;;18.97;1.33;;;;;;;5.60;100.00;96738.69;5025162;28;20667;-67
2021/12/01 08:32:45;;;;;;;34.77;2.83;;;;;;;5.63;100.00;96735.50;5025757;28;20627;-67
2021/12/01 08:35:12;;;;;;;28.37;1.87;;;;;;;5.58;100.00;96724.88;5023274;28;20616;-67
2021/12/01 08:37:39;;;;;;;43.27;3.00;;;;;;;5.74;100.00;96731.84;5022828;28;20628;-67
2021/12/01 08:40:09;;;;;;;13.13;1.47;;;;;;;5.85;100.00;96733.44;5027502;28;20633;-67
2021/12/01 08:42:35;;;;;;;20.67;2.00;;;;;;;5.70;100.00;96733.41;5029230;28;20589;-68
2021/12/01 08:45:03;;;;;;;23.47;1.97;;;;;;;5.73;100.00;96731.03;5028013;28;20639;-67
2021/12/01 08:47:31;;;;;;;14.03;1.57;;;;;;;5.65;100.00;96733.38;5025935;28;20598;-67
2021/12/01 08:49:58;;;;;;;8.37;1.20;;;;;;;5.75;100.00;96731.59;5026239;28;20613;-67
2021/12/01 08:52:26;;;;;;;19.20;1.80;;;;;;;5.69;100.00;96726.53;5028991;28;20601;-67
2021/12/01 08:54:53;;;;;;;42.67;3.10;;;;;;;5.63;100.00;96723.03;5028795;28;20628;-67
2021/12/01 08:57:21;;;;;;;12.90;1.30;;;;;;;5.83;100.00;96728.41;5025608;28;20637;-67
2021/12/01 08:59:49;;;;;;;47.87;2.97;;;;;;;5.76;100.00;96727.06;5026928;28;20606;-67
2021/12/01 09:02:16;;;;;;;15.07;1.47;;;;;;;5.85;100.00;96725.50;5028396;28;20609;-68
2021/12/01 09:04:42;;;;;;;17.70;1.60;;;;;;;5.80;100.00;96728.13;5028595;28;20609;-67
2021/12/01 09:07:09;;;;;;;9.23;0.90;;;;;;;5.76;100.00;96722.56;5026776;28;20663;-67
2021/12/01 09:09:36;;;;;;;28.07;2.27;;;;;;;5.80;100.00;96712.25;5025408;28;20598;-67
2021/12/01 09:12:03;;;;;;;9.50;1.53;;;;;;;5.84;100.00;96715.97;5026226;28;20586;-67
2021/12/01 09:14:31;;;;;;;32.67;2.10;;;;;;;5.80;100.00;96706.94;5028568;28;20609;-67
2021/12/01 09:16:58;;;;;;;10.77;1.37;;;;;;;5.81;100.00;96708.56;5028283;28;20600;-67
2021/12/01 09:19:24;;;;;;;22.33;2.10;;;;;;;5.80;100.00;96701.66;5025223;28;20637;-67
2021/12/01 09:21:51;;;;;;;25.53;2.00;;;;;;;5.90;100.00;96699.06;5025064;28;20601;-67
2021/12/01 09:24:20;;;;;;;43.67;2.80;;;;;;;5.83;100.00;96695.81;5028228;28;20596;-67
2021/12/01 09:26:48;;;;;;;32.53;2.50;;;;;;;5.76;100.00;96687.31;5028339;28;20617;-67
2021/12/01 09:29:14;;;;;;;40.47;2.63;;;;;;;5.83;100.00;96695.81;5025490;28;20624;-67
2021/12/01 09:31:42;;;;;;;23.97;1.67;;;;;;;5.96;100.00;96679.47;5025040;28;20675;-67
2021/12/01 09:34:09;;;;;;;31.37;2.17;;;;;;;5.98;100.00;96679.97;5026531;28;20590;-67
2021/12/01 09:36:36;;;;;;;30.03;2.07;;;;;;;5.96;100.00;96658.25;5027897;28;20601;-67
2021/12/01 09:39:04;;;;;;;22.83;1.77;;;;;;;5.93;100.00;96653.50;5026841;28;20640;-67
2021/12/01 09:41:30;;;;;;;38.10;2.60;;;;;;;5.97;100.00;96644.72;5024934;28;20661;-67
2021/12/01 09:43:57;;;;;;;26.33;1.87;;;;;;;6.07;100.00;96633.34;5024916;28;20606;-67
2021/12/01 09:46:25;;;;;;;36.73;2.27;;;;;;;6.05;100.00;96630.19;5028017;28;20593;-67
2021/12/01 09:48:53;;;;;;;19.93;1.73;;;;;;;6.10;100.00;96616.91;5027509;28;20623;-67
2021/12/01 09:51:20;;;;;;;9.00;0.97;;;;;;;6.11;100.00;96617.72;5024381;28;20591;-67
2021/12/01 09:53:47;;;;;;;39.47;2.63;;;;;;;6.04;100.00;96598.63;5024486;28;20610;-67
2021/12/01 09:56:14;;;;;;;25.63;2.07;;;;;;;6.22;100.00;96595.47;5027009;28;20625;-67
2021/12/01 09:58:42;;;;;;;34.13;2.53;;;;;;;6.17;100.00;96584.84;5029225;28;20605;-67
2021/12/01 10:01:13;;;;;;;16.80;1.50;;;;;;;6.40;100.00;96593.03;5025833;28;20617;-68
2021/12/01 10:03:40;;;;;;;87.10;5.10;;;;;;;6.25;100.00;96579.03;5024028;28;20625;-67
2021/12/01 10:06:11;;;;;;;14.50;1.20;;;;;;;6.31;100.00;96581.38;5025992;28;20609;-67
2021/12/01 10:08:40;;;;;;;29.17;1.93;;;;;;;6.28;100.00;96583.78;5027625;28;20615;-67
2021/12/01 10:11:08;;;;;;;21.77;1.73;;;;;;;6.27;100.00;96576.88;5026157;28;20604;-67
2021/12/01 10:13:38;;;;;;;10.07;1.37;;;;;;;6.38;100.00;96571.28;5024090;28;20612;-67
2021/12/01 10:16:07;;;;;;;2.90;0.90;;;;;;;6.46;100.00;96562.81;5025554;28;20613;-67
2021/12/01 10:18:40;;;;;;;27.57;1.87;;;;;;;6.31;100.00;96551.44;5027424;28;20605;-67
2021/12/01 10:21:12;;;;;;;16.37;1.30;;;;;;;6.38;100.00;96557.22;5025745;28;20608;-67
2021/12/01 10:23:43;;;;;;;27.67;1.97;;;;;;;6.64;100.00;96545.50;5023839;28;20637;-68
2021/12/01 10:26:13;;;;;;;14.13;1.30;;;;;;;6.44;100.00;96527.78;5025812;28;20606;-67
2021/12/01 10:28:42;;;;;;;43.30;2.60;;;;;;;6.44;100.00;96513.72;5027137;28;20617;-67
2021/12/01 10:31:08;;;;;;;28.70;1.80;;;;;;;6.32;100.00;96518.53;5025582;28;20601;-67
2021/12/01 10:33:35;;;;;;;11.00;0.90;;;;;;;6.43;100.00;96515.63;5023725;28;20598;-67
2021/12/01 10:36:06;;;;;;;8.43;0.80;;;;;;;6.48;100.00;96501.53;5024770;28;20598;-68
2021/12/01 10:38:37;;;;;;;12.73;0.90;;;;;;;6.39;100.00;96498.66;5027237;28;20613;-67
2021/12/01 10:41:10;;;;;;;35.20;2.10;;;;;;;6.46;100.00;96491.22;5025989;28;20619;-67
2021/12/01 10:43:42;;;;;;;36.13;2.20;;;;;;;6.76;100.00;96469.06;5023661;28;20613;-67
2021/12/01 10:46:11;;;;;;;15.43;0.97;;;;;;;6.49;100.00;96479.25;5025478;28;20660;-67
2021/12/01 10:48:40;;;;;;;29.13;1.73;;;;;;;6.41;100.00;96471.84;5027010;28;20601;-68
2021/12/01 10:51:07;;;;;;;10.93;1.00;;;;;;;6.64;100.00;96465.94;5025325;28;20636;-67
2021/12/01 10:53:35;;;;;;;22.63;1.57;;;;;;;6.46;100.00;96466.53;5023497;28;20598;-67
2021/12/01 10:56:04;;;;;;;15.93;1.10;;;;;;;6.48;100.00;96459.09;5024375;28;20618;-67
2021/12/01 10:58:35;;;;;;;18.87;1.17;;;;;;;6.42;100.00;96442.44;5028249;28;20619;-67
2021/12/01 11:01:04;;;;;;;4.30;0.70;;;;;;;6.43;100.00;96444.03;5025824;28;20605;-67
2021/12/01 11:03:32;;;;;;;11.57;1.00;;;;;;;6.58;100.00;96432.53;5023350;28;20625;-67
2021/12/01 11:06:10;;;;;;;31.53;1.70;;;;;;;6.57;100.00;96422.19;5023807;28;20626;-67
2021/12/01 11:08:39;;;;;;;43.47;2.30;;;;;;;6.47;100.00;96417.72;5026649;28;20609;-67
2021/12/01 11:11:08;;;;;;;4.70;0.77;;;;;;;6.45;100.00;96412.72;5025134;28;20640;-67
2021/12/01 11:13:37;;;;;;;24.27;1.47;;;;;;;6.51;100.00;96408.97;5022852;28;20633;-68
2021/12/01 11:16:07;;;;;;;12.00;1.07;;;;;;;6.55;100.00;96405.78;5024318;28;20593;-67
2021/12/01 11:18:36;;;;;;;27.53;1.50;;;;;;;6.52;100.00;96404.47;5026551;28;20609;-67
2021/12/01 11:21:07;;;;;;;5.70;0.73;;;;;;;6.44;100.00;96402.38;5025500;28;20640;-67
2021/12/01 11:23:36;;;;;;;15.57;1.07;;;;;;;6.51;100.00;96390.41;5023129;28;20624;-68
2021/12/01 11:26:07;;;;;;;24.07;1.37;;;;;;;6.56;100.00;96388.81;5023855;28;20617;-67
2021/12/01 11:28:38;;;;;;;37.43;2.00;;;;;;;6.47;100.00;96376.09;5026469;28;20688;-67
2021/12/01 11:31:07;;;;;;;21.20;1.40;;;;;;;6.47;100.00;96365.50;5024955;28;20604;-68
2021/12/01 11:33:34;;;;;;;26.30;1.37;;;;;;;6.49;100.00;96360.72;5022150;28;20613;-67